createdAt,value
2018-01-02T00:02:09.090Z,4.40
2018-01-02T00:04:35.559Z,4.40
2018-01-02T00:07:02.016Z,4.50
2018-01-02T00:09:28.447Z,4.40
2018-01-02T00:11:55.649Z,4.30
2018-01-02T00:14:22.129Z,4.30
2018-01-02T00:16:48.851Z,4.30
2018-01-02T00:19:15.243Z,4.20
2018-01-02T00:21:42.426Z,4.10
2018-01-02T00:24:08.858Z,4.10
2018-01-02T00:26:35.389Z,4.10
2018-01-02T00:29:01.824Z,4.10
2018-01-02T00:31:28.257Z,4.10
2018-01-02T00:33:54.722Z,4.10
2018-01-02T00:36:21.856Z,4.10
2018-01-02T00:38:48.311Z,4.10
2018-01-02T00:41:14.704Z,4.20
2018-01-02T00:43:41.152Z,4.20
2018-01-02T00:46:07.878Z,4.10
2018-01-02T00:48:34.275Z,4.00
2018-01-02T00:51:00.638Z,4.00
2018-01-02T00:53:27.029Z,4.00
2018-01-02T00:55:53.399Z,4.10
2018-01-02T00:58:19.835Z,4.00
2018-01-02T01:00:46.219Z,4.10
2018-01-02T01:03:12.586Z,4.00
2018-01-02T01:05:39.690Z,4.20
2018-01-02T01:08:06.755Z,4.10
2018-01-02T01:10:33.178Z,4.20
2018-01-02T01:12:59.652Z,4.10
2018-01-02T01:15:26.073Z,4.10
2018-01-02T01:17:52.596Z,4.10
2018-01-02T01:20:19.800Z,4.00
2018-01-02T01:22:46.159Z,4.00
2018-01-02T01:25:12.547Z,4.00
2018-01-02T01:27:39.756Z,4.10
2018-01-02T01:30:06.429Z,4.10
2018-01-02T01:32:32.829Z,4.10
2018-01-02T01:34:59.180Z,4.20
2018-01-02T01:37:25.536Z,4.30
2018-01-02T01:39:51.900Z,4.30
2018-01-02T01:42:19.021Z,4.40
2018-01-02T01:44:45.374Z,4.40
2018-01-02T01:47:11.714Z,4.50
2018-01-02T01:49:38.034Z,4.50
2018-01-02T01:52:05.015Z,4.50
2018-01-02T01:54:31.391Z,4.50
2018-01-02T01:56:57.822Z,4.50
2018-01-02T01:59:24.162Z,4.50
2018-01-02T02:01:50.841Z,4.50
2018-01-02T02:04:17.336Z,4.60
2018-01-02T02:06:43.715Z,4.60
2018-01-02T02:09:10.059Z,4.60
2018-01-02T02:11:37.174Z,4.60
2018-01-02T02:14:04.352Z,4.60
2018-01-02T02:16:30.699Z,4.60
2018-01-02T02:18:57.343Z,4.60
2018-01-02T02:21:23.779Z,4.60
2018-01-02T02:23:50.087Z,4.50
2018-01-02T02:26:17.167Z,4.50
2018-01-02T02:28:43.481Z,4.50
2018-01-02T02:31:09.835Z,4.60
2018-01-02T02:33:36.920Z,4.50
2018-01-02T02:36:03.893Z,4.50
2018-01-02T02:38:31.714Z,4.50
2018-01-02T02:41:07.056Z,4.50
2018-01-02T02:43:33.457Z,4.50
2018-01-02T02:45:59.832Z,4.60
2018-01-02T02:48:26.163Z,4.60
2018-01-02T02:50:52.542Z,4.50
2018-01-02T02:53:18.847Z,4.60
2018-01-02T02:55:45.255Z,4.60
2018-01-02T02:58:12.322Z,4.60
2018-01-02T03:00:38.651Z,4.60
2018-01-02T03:03:05.343Z,4.60
2018-01-02T03:05:31.747Z,4.60
2018-01-02T03:07:58.112Z,4.60
2018-01-02T03:10:24.436Z,4.60
2018-01-02T03:12:51.507Z,4.60
2018-01-02T03:15:18.555Z,4.60
2018-01-02T03:17:45.735Z,4.60
2018-01-02T03:20:12.086Z,4.50
2018-01-02T03:22:38.430Z,4.60
2018-01-02T03:25:05.497Z,4.60
2018-01-02T03:27:31.868Z,4.60
2018-01-02T03:29:58.207Z,4.60
2018-01-02T03:32:25.387Z,4.50
2018-01-02T03:34:53.297Z,4.40
2018-01-02T03:37:19.693Z,4.50
2018-01-02T03:39:46.042Z,4.40
2018-01-02T03:42:12.348Z,4.50
2018-01-02T03:44:38.727Z,4.40
2018-01-02T03:47:05.751Z,4.40
2018-01-02T03:49:32.177Z,4.40
2018-01-02T03:51:58.524Z,4.40
2018-01-02T03:54:24.847Z,4.40
2018-01-02T03:56:51.279Z,4.40
2018-01-02T03:59:18.332Z,4.40
2018-01-02T04:01:46.148Z,4.40
2018-01-02T04:04:12.472Z,4.40
2018-01-02T04:06:38.838Z,4.40
2018-01-02T04:09:05.907Z,4.40
2018-01-02T04:11:33.091Z,4.40
2018-01-02T04:13:59.541Z,4.40
2018-01-02T04:16:25.951Z,4.40
2018-01-02T04:18:52.275Z,4.40
2018-01-02T04:21:18.608Z,4.40
2018-01-02T04:23:45.702Z,4.40
2018-01-02T04:26:12.019Z,4.40
2018-01-02T04:28:39.126Z,4.40
2018-01-02T04:31:06.188Z,4.50
2018-01-02T04:33:33.326Z,4.50
2018-01-02T04:35:59.680Z,4.50
2018-01-02T04:38:26.038Z,4.50
2018-01-02T04:40:52.348Z,4.50
2018-01-02T04:43:18.734Z,4.50
2018-01-02T04:45:46.587Z,4.50
2018-01-02T04:48:12.917Z,4.50
2018-01-02T04:50:39.436Z,4.60
2018-01-02T04:53:05.983Z,4.60
2018-01-02T04:55:32.327Z,4.60
2018-01-02T04:57:58.667Z,4.60
2018-01-02T05:00:25.904Z,4.70
2018-01-02T05:02:52.972Z,4.70
2018-01-02T05:05:20.067Z,4.70
2018-01-02T05:07:46.395Z,4.70
2018-01-02T05:10:13.509Z,4.80
2018-01-02T05:12:40.615Z,4.80
2018-01-02T05:15:07.786Z,4.80
2018-01-02T05:17:34.092Z,4.80
2018-01-02T05:20:01.203Z,4.90
2018-01-02T05:22:27.559Z,4.80
2018-01-02T05:24:53.919Z,4.90
2018-01-02T05:27:20.268Z,4.80
2018-01-02T05:29:46.623Z,4.90
2018-01-02T05:32:13.779Z,4.90
2018-01-02T05:34:40.107Z,4.90
2018-01-02T05:37:06.439Z,4.90
2018-01-02T05:39:33.571Z,4.90
2018-01-02T05:42:00.087Z,4.90
2018-01-02T05:44:26.409Z,4.90
2018-01-02T05:46:52.744Z,4.90
2018-01-02T05:49:19.136Z,5.00
2018-01-02T05:51:46.224Z,5.10
2018-01-02T05:54:12.711Z,5.10
2018-01-02T05:56:39.070Z,5.10
2018-01-02T05:59:05.849Z,5.00
2018-01-02T06:01:32.190Z,5.10
2018-01-02T06:03:58.516Z,5.30
2018-01-02T06:06:25.652Z,5.10
2018-01-02T06:08:53.505Z,5.10
2018-01-02T06:11:19.879Z,5.10
2018-01-02T06:13:46.972Z,5.10
2018-01-02T06:16:13.310Z,5.10
2018-01-02T06:18:40.386Z,5.00
2018-01-02T06:21:06.772Z,5.00
2018-01-02T06:23:33.145Z,5.00
2018-01-02T06:25:59.572Z,5.00
2018-01-02T06:28:26.662Z,5.00
2018-01-02T06:30:53.049Z,5.00
2018-01-02T06:33:19.481Z,5.10
2018-01-02T06:35:46.659Z,5.10
2018-01-02T06:38:13.003Z,5.10
2018-01-02T06:40:39.427Z,5.10
2018-01-02T06:43:06.050Z,5.10
2018-01-02T06:45:32.548Z,5.00
2018-01-02T06:47:59.019Z,5.10
2018-01-02T06:50:26.139Z,5.10
2018-01-02T06:52:52.491Z,5.10
2018-01-02T06:55:18.846Z,5.10
2018-01-02T06:57:45.269Z,5.10
2018-01-02T07:00:11.789Z,5.20
2018-01-02T07:02:39.691Z,5.10
2018-01-02T07:05:06.028Z,5.20
2018-01-02T07:07:32.455Z,5.20
2018-01-02T07:09:58.860Z,5.20
2018-01-02T07:12:25.323Z,5.20
2018-01-02T07:14:51.991Z,5.20
2018-01-02T07:17:18.434Z,5.40
2018-01-02T07:19:59.808Z,5.20
2018-01-02T07:22:26.968Z,5.10
2018-01-02T07:24:53.983Z,5.00
2018-01-02T07:27:20.538Z,5.00
2018-01-02T07:29:47.320Z,4.80
2018-01-02T07:32:14.249Z,5.00
2018-01-02T07:34:40.843Z,4.90
2018-01-02T07:37:07.336Z,5.00
2018-01-02T07:39:33.801Z,4.90
2018-01-02T07:42:00.215Z,4.90
2018-01-02T07:44:26.723Z,4.80
2018-01-02T07:46:53.708Z,4.80
2018-01-02T07:49:20.067Z,4.70
2018-01-02T07:51:47.199Z,4.70
2018-01-02T07:54:15.169Z,4.70
2018-01-02T07:56:41.997Z,4.70
2018-01-02T07:59:08.381Z,4.80
2018-01-02T08:01:35.545Z,4.90
2018-01-02T08:04:02.789Z,4.90
2018-01-02T08:06:29.255Z,4.90
2018-01-02T08:08:55.842Z,4.90
2018-01-02T08:11:23.122Z,4.90
2018-01-02T08:13:49.630Z,4.80
2018-01-02T08:16:16.112Z,4.90
2018-01-02T08:18:42.633Z,4.90
2018-01-02T08:21:09.173Z,5.00
2018-01-02T08:23:36.329Z,5.00
2018-01-02T08:26:04.186Z,5.00
2018-01-02T08:28:30.734Z,5.00
2018-01-02T08:30:57.161Z,5.00
2018-01-02T08:33:23.553Z,5.00
2018-01-02T08:35:50.113Z,5.00
2018-01-02T08:38:16.527Z,4.80
2018-01-02T08:40:43.341Z,5.10
2018-01-02T08:43:09.887Z,5.10
2018-01-02T08:45:36.339Z,5.10
2018-01-02T08:48:03.146Z,5.10
2018-01-02T08:50:29.554Z,5.10
2018-01-02T08:52:56.136Z,5.20
2018-01-02T08:55:22.549Z,5.20
2018-01-02T08:57:49.647Z,5.20
2018-01-02T09:00:16.003Z,5.30
2018-01-02T09:02:42.463Z,5.30
2018-01-02T09:05:08.997Z,5.30
2018-01-02T09:07:35.544Z,5.30
2018-01-02T09:10:03.117Z,5.30
2018-01-02T09:12:35.643Z,5.20
2018-01-02T09:15:02.196Z,5.30
2018-01-02T09:17:28.696Z,5.30
2018-01-02T09:19:55.994Z,5.40
2018-01-02T09:22:22.415Z,5.40
2018-01-02T09:24:49.575Z,5.50
2018-01-02T09:27:15.943Z,5.50
2018-01-02T09:29:42.279Z,5.50
2018-01-02T09:32:08.910Z,5.50
2018-01-02T09:34:35.349Z,5.50
2018-01-02T09:37:01.950Z,5.60
2018-01-02T09:39:28.403Z,5.60
2018-01-02T09:41:54.894Z,5.60
2018-01-02T09:44:21.569Z,5.60
2018-01-02T09:46:48.778Z,5.70
2018-01-02T09:49:15.158Z,5.60
2018-01-02T09:51:41.544Z,5.60
2018-01-02T09:54:08.048Z,5.60
2018-01-02T09:56:34.457Z,5.50
2018-01-02T09:59:01.689Z,5.50
2018-01-02T10:01:28.286Z,5.50
2018-01-02T10:03:54.868Z,5.80
2018-01-02T10:06:21.355Z,5.70
2018-01-02T10:08:47.904Z,5.70
2018-01-02T10:11:14.296Z,5.70
2018-01-02T10:13:40.639Z,5.70
2018-01-02T10:16:07.279Z,5.60
2018-01-02T10:18:33.706Z,5.80
2018-01-02T10:21:00.216Z,5.70
2018-01-02T10:23:26.545Z,5.70
2018-01-02T10:25:52.991Z,5.70
2018-01-02T10:28:19.423Z,5.60
2018-01-02T10:30:45.858Z,5.70
2018-01-02T10:33:12.307Z,5.80
2018-01-02T10:35:38.859Z,5.80
2018-01-02T10:38:06.338Z,5.80
2018-01-02T10:40:32.920Z,5.80
2018-01-02T10:42:59.305Z,5.80
2018-01-02T10:45:25.712Z,5.90
2018-01-02T10:47:53.235Z,6.00
2018-01-02T10:50:19.799Z,6.00
2018-01-02T10:52:46.320Z,6.10
2018-01-02T10:55:13.672Z,6.10
2018-01-02T10:57:40.928Z,6.10
2018-01-02T11:00:08.024Z,6.10
2018-01-02T11:02:34.456Z,6.00
2018-01-02T11:05:02.348Z,6.10
2018-01-02T11:07:28.715Z,6.10
2018-01-02T11:09:55.320Z,6.10
2018-01-02T11:12:27.929Z,6.20
2018-01-02T11:14:54.567Z,6.20
2018-01-02T11:17:21.147Z,6.20
2018-01-02T11:19:48.405Z,6.10
2018-01-02T11:22:14.773Z,6.10
2018-01-02T11:24:42.767Z,5.90
2018-01-02T11:27:09.233Z,6.00
2018-01-02T11:29:36.473Z,6.00
2018-01-02T11:32:03.115Z,6.00
2018-01-02T11:34:29.860Z,6.00
2018-01-02T11:36:56.472Z,6.00
2018-01-02T11:39:23.161Z,6.00
2018-01-02T11:41:49.660Z,6.00
2018-01-02T11:44:16.727Z,6.10
2018-01-02T11:46:43.072Z,6.00
2018-01-02T11:49:09.568Z,6.10
2018-01-02T11:51:36.017Z,6.20
2018-01-02T11:54:03.617Z,6.30
2018-01-02T11:56:30.088Z,6.30
2018-01-02T11:58:57.374Z,6.50
2018-01-02T12:01:24.533Z,6.60
2018-01-02T12:03:50.888Z,6.60
2018-01-02T12:06:17.452Z,6.90
2018-01-02T12:08:44.000Z,6.90
2018-01-02T12:11:10.467Z,6.90
2018-01-02T12:13:39.288Z,6.90
2018-01-02T12:16:05.682Z,6.90
2018-01-02T12:18:32.150Z,6.90
2018-01-02T12:20:58.459Z,6.90
2018-01-02T12:23:24.880Z,6.80
2018-01-02T12:25:51.239Z,6.80
2018-01-02T12:28:18.350Z,6.80
2018-01-02T12:30:44.822Z,6.80
2018-01-02T12:33:11.784Z,6.80
2018-01-02T12:35:38.548Z,6.90
2018-01-02T12:38:05.565Z,6.90
2018-01-02T12:40:31.985Z,6.90
2018-01-02T12:43:00.807Z,6.80
2018-01-02T12:45:27.246Z,6.80
2018-01-02T12:47:53.663Z,6.70
2018-01-02T12:50:20.881Z,6.60
2018-01-02T12:52:48.048Z,6.50
2018-01-02T12:55:14.483Z,6.50
2018-01-02T12:57:40.990Z,6.50
2018-01-02T13:00:07.443Z,6.40
2018-01-02T13:02:33.856Z,6.40
2018-01-02T13:05:00.288Z,6.40
2018-01-02T13:07:27.479Z,6.30
2018-01-02T13:09:54.578Z,6.30
2018-01-02T13:12:20.925Z,6.30
2018-01-02T13:14:47.373Z,6.40
2018-01-02T13:17:13.979Z,6.40
2018-01-02T13:19:40.411Z,6.50
2018-01-02T13:22:06.788Z,6.60
2018-01-02T13:24:33.187Z,6.60
2018-01-02T13:26:59.555Z,6.60
2018-01-02T13:29:26.767Z,6.50
2018-01-02T13:31:53.132Z,6.50
2018-01-02T13:34:19.503Z,6.60
2018-01-02T13:36:45.942Z,7.30
2018-01-02T13:39:13.416Z,6.60
2018-01-02T13:41:40.511Z,6.50
2018-01-02T13:44:06.868Z,6.50
2018-01-02T13:46:33.219Z,6.60
2018-01-02T13:48:59.790Z,6.50
2018-01-02T13:51:26.178Z,6.70
2018-01-02T13:53:52.515Z,6.60
2018-01-02T13:56:19.677Z,6.60
2018-01-02T13:58:45.991Z,6.50
2018-01-02T14:01:12.334Z,6.50
2018-01-02T14:03:39.588Z,6.40
2018-01-02T14:06:06.485Z,6.40
2018-01-02T14:08:32.895Z,6.50
2018-01-02T14:10:59.434Z,6.40
2018-01-02T14:13:26.023Z,6.30
2018-01-02T14:15:52.372Z,6.30
2018-01-02T14:18:18.761Z,6.30
2018-01-02T14:20:45.183Z,6.20
2018-01-02T14:23:11.770Z,6.30
2018-01-02T14:25:38.234Z,6.30
2018-01-02T14:28:05.269Z,6.20
2018-01-02T14:30:31.846Z,6.20
2018-01-02T14:32:58.191Z,6.30
2018-01-02T14:35:24.615Z,6.30
2018-01-02T14:37:52.515Z,6.10
2018-01-02T14:40:19.863Z,6.20
2018-01-02T14:42:46.221Z,6.50
2018-01-02T14:45:12.691Z,6.20
2018-01-02T14:47:39.812Z,6.10
2018-01-02T14:50:06.587Z,6.10
2018-01-02T14:52:33.184Z,6.10
2018-01-02T14:54:59.704Z,6.10
2018-01-02T14:57:26.109Z,6.10
2018-01-02T14:59:52.463Z,6.10
2018-01-02T15:02:18.786Z,6.10
2018-01-02T15:04:46.294Z,5.60
2018-01-02T15:07:13.449Z,5.90
2018-01-02T15:09:39.954Z,6.10
2018-01-02T15:12:06.411Z,5.90
2018-01-02T15:14:32.780Z,6.00
2018-01-02T15:16:59.238Z,6.00
2018-01-02T15:19:26.309Z,6.00
2018-01-02T15:21:52.777Z,5.90
2018-01-02T15:24:19.290Z,5.90
2018-01-02T15:26:45.783Z,5.80
2018-01-02T15:29:12.287Z,5.80
2018-01-02T15:31:38.722Z,5.80
2018-01-02T15:34:05.613Z,5.80
2018-01-02T15:36:32.267Z,5.70
2018-01-02T15:38:58.644Z,5.70
2018-01-02T15:41:25.046Z,5.70
2018-01-02T15:43:51.592Z,5.70
2018-01-02T15:46:18.671Z,5.70
2018-01-02T15:48:45.079Z,5.70
2018-01-02T15:51:11.528Z,5.80
2018-01-02T15:53:38.012Z,5.70
2018-01-02T15:56:05.213Z,5.80
2018-01-02T15:58:31.590Z,5.90
2018-01-02T16:00:58.019Z,5.80
2018-01-02T16:03:24.429Z,5.90
2018-01-02T16:05:50.756Z,5.80
2018-01-02T16:08:17.131Z,5.90
2018-01-02T16:10:43.519Z,5.90
2018-01-02T16:13:10.671Z,6.00
2018-01-02T16:15:37.095Z,6.00
2018-01-02T16:18:05.174Z,6.20
2018-01-02T16:20:33.109Z,6.20
2018-01-02T16:22:59.548Z,6.30
2018-01-02T16:25:26.691Z,6.10
2018-01-02T16:27:53.080Z,6.10
2018-01-02T16:30:19.516Z,6.20
2018-01-02T16:32:45.914Z,6.20
2018-01-02T16:35:12.275Z,6.10
2018-01-02T16:37:39.409Z,6.10
2018-01-02T16:40:06.451Z,6.10
2018-01-02T16:42:32.806Z,6.10
2018-01-02T16:44:59.293Z,6.00
2018-01-02T16:47:26.418Z,6.00
2018-01-02T16:49:52.751Z,5.90
2018-01-02T16:52:19.201Z,6.10
2018-01-02T16:54:45.578Z,6.10
2018-01-02T16:57:12.700Z,6.10
2018-01-02T16:59:39.115Z,6.00
2018-01-02T17:02:05.795Z,6.10
2018-01-02T17:04:33.699Z,6.20
2018-01-02T17:07:00.787Z,6.30
2018-01-02T17:09:28.395Z,6.40
2018-01-02T17:11:54.795Z,6.30
2018-01-02T17:14:21.186Z,6.40
2018-01-02T17:16:47.736Z,6.50
2018-01-02T17:19:14.118Z,6.50
2018-01-02T17:21:42.036Z,6.50
2018-01-02T17:24:08.702Z,6.50
2018-01-02T17:26:35.219Z,6.50
2018-01-02T17:29:01.614Z,6.40
2018-01-02T17:31:28.899Z,6.50
2018-01-02T17:33:55.393Z,6.50
2018-01-02T17:36:21.874Z,6.50
2018-01-02T17:38:48.268Z,6.50
2018-01-02T17:41:15.389Z,6.60
2018-01-02T17:43:41.836Z,6.60
2018-01-02T17:46:09.251Z,6.70
2018-01-02T17:48:35.698Z,6.60
2018-01-02T17:51:02.276Z,6.60
2018-01-02T17:53:29.311Z,6.60
2018-01-02T17:55:55.818Z,6.70
2018-01-02T17:58:22.486Z,6.70
2018-01-02T18:00:49.659Z,6.70
2018-01-02T18:03:16.150Z,6.70
2018-01-02T18:05:42.559Z,6.60
2018-01-02T18:08:09.437Z,6.50
2018-01-02T18:10:36.681Z,6.50
2018-01-02T18:13:03.113Z,6.40
2018-01-02T18:15:29.566Z,6.40
2018-01-02T18:17:55.975Z,6.50
2018-01-02T18:20:22.363Z,6.50
2018-01-02T18:22:48.768Z,6.40
2018-01-02T18:25:15.143Z,6.30
2018-01-02T18:27:41.557Z,6.30
2018-01-02T18:30:08.567Z,6.20
2018-01-02T18:32:34.925Z,6.20
2018-01-02T18:35:01.370Z,5.30
2018-01-02T18:37:27.724Z,6.10
2018-01-02T18:39:54.353Z,6.10
2018-01-02T18:42:20.744Z,6.10
2018-01-02T18:44:47.105Z,6.10
2018-01-02T18:47:13.827Z,6.20
2018-01-02T18:49:40.217Z,6.20
2018-01-02T18:52:07.088Z,6.20
2018-01-02T18:54:35.384Z,6.30
2018-01-02T18:57:01.922Z,6.30
2018-01-02T18:59:28.422Z,6.20
2018-01-02T19:01:55.611Z,6.30
2018-01-02T19:04:22.072Z,6.30
2018-01-02T19:06:48.489Z,6.50
2018-01-02T19:09:14.878Z,6.10
2018-01-02T19:11:41.253Z,6.00
2018-01-02T19:14:08.316Z,5.90
2018-01-02T19:16:36.126Z,5.90
2018-01-02T19:19:02.456Z,6.00
2018-01-02T19:21:29.670Z,6.00
2018-01-02T19:23:56.071Z,6.00
2018-01-02T19:26:22.415Z,6.00
2018-01-02T19:28:48.782Z,6.00
2018-01-02T19:31:15.226Z,6.10
2018-01-02T19:33:41.679Z,6.00
2018-01-02T19:36:08.525Z,6.00
2018-01-02T19:38:34.996Z,6.00
2018-01-02T19:41:02.136Z,5.90
2018-01-02T19:43:28.560Z,5.80
2018-01-02T19:45:54.981Z,5.80
2018-01-02T19:48:22.943Z,5.70
2018-01-02T19:50:49.406Z,5.80
2018-01-02T19:53:16.543Z,5.70
2018-01-02T19:55:44.407Z,5.60
2018-01-02T19:58:10.902Z,5.70
2018-01-02T20:00:37.344Z,5.60
2018-01-02T20:03:04.385Z,5.60
2018-01-02T20:05:30.859Z,5.60
2018-01-02T20:07:57.259Z,5.60
2018-01-02T20:10:23.655Z,5.60
2018-01-02T20:12:50.075Z,5.50
2018-01-02T20:15:16.538Z,5.50
2018-01-02T20:17:42.936Z,5.60
2018-01-02T20:20:10.271Z,5.50
2018-01-02T20:22:36.771Z,5.50
2018-01-02T20:25:03.365Z,5.50
2018-01-02T20:27:29.783Z,5.40
2018-01-02T20:29:56.152Z,5.50
2018-01-02T20:32:22.587Z,5.50
2018-01-02T20:34:48.982Z,5.50
2018-01-02T20:37:16.238Z,5.50
2018-01-02T20:39:42.631Z,5.40
2018-01-02T20:42:09.504Z,5.50
2018-01-02T20:44:35.943Z,5.60
2018-01-02T20:47:02.365Z,5.50
2018-01-02T20:49:29.259Z,5.50
2018-01-02T20:51:55.834Z,5.50
2018-01-02T20:54:23.119Z,5.60
2018-01-02T20:56:49.547Z,5.50
2018-01-02T20:59:16.693Z,5.60
2018-01-02T21:01:43.142Z,5.60
2018-01-02T21:04:10.528Z,5.60
2018-01-02T21:06:36.951Z,5.60
2018-01-02T21:09:04.705Z,5.60
2018-01-02T21:11:31.204Z,5.60
2018-01-02T21:13:58.359Z,5.70
2018-01-02T21:16:25.651Z,5.70
2018-01-02T21:18:52.061Z,5.70
2018-01-02T21:21:19.313Z,5.80
2018-01-02T21:23:45.777Z,5.80
2018-01-02T21:26:12.919Z,5.90
2018-01-02T21:28:39.391Z,5.90
2018-01-02T21:31:07.115Z,5.90
2018-01-02T21:33:33.670Z,6.00
2018-01-02T21:36:00.063Z,6.00
2018-01-02T21:38:27.198Z,6.20
2018-01-02T21:40:53.623Z,6.20
2018-01-02T21:43:20.023Z,6.30
2018-01-02T21:45:46.418Z,6.40
2018-01-02T21:48:12.832Z,6.50
2018-01-02T21:50:40.050Z,6.60
2018-01-02T21:53:07.779Z,6.70
2018-01-02T21:55:34.233Z,6.70
2018-01-02T21:58:00.871Z,6.80
2018-01-02T22:00:27.485Z,6.70
2018-01-02T22:02:54.015Z,6.70
2018-01-02T22:05:20.375Z,6.80
2018-01-02T22:07:46.766Z,6.80
2018-01-02T22:10:13.301Z,6.80
2018-01-02T22:12:39.806Z,6.90
2018-01-02T22:15:06.602Z,6.90
2018-01-02T22:17:33.042Z,6.90
2018-01-02T22:20:00.958Z,6.90
2018-01-02T22:22:27.384Z,6.90
2018-01-02T22:24:54.031Z,7.10
2018-01-02T22:27:20.423Z,7.10
2018-01-02T22:29:46.848Z,7.20
2018-01-02T22:32:13.326Z,7.10
2018-01-02T22:34:39.766Z,7.10
2018-01-02T22:37:06.260Z,7.10
2018-01-02T22:39:32.642Z,7.10
2018-01-02T22:41:59.811Z,7.20
2018-01-02T22:44:26.203Z,7.20
2018-01-02T22:46:52.599Z,7.40
2018-01-02T22:49:19.691Z,7.30
2018-01-02T22:51:46.135Z,7.20
2018-01-02T22:54:14.070Z,7.30
2018-01-02T22:56:40.521Z,7.30
2018-01-02T22:59:08.449Z,7.30
2018-01-02T23:01:34.850Z,7.20
2018-01-02T23:04:01.959Z,7.30
2018-01-02T23:06:29.270Z,7.30
2018-01-02T23:08:56.411Z,7.40
2018-01-02T23:11:22.837Z,7.30
2018-01-02T23:13:49.320Z,7.40
2018-01-02T23:16:15.878Z,7.40
2018-01-02T23:18:42.295Z,7.50
2018-01-02T23:21:09.346Z,7.50
2018-01-02T23:23:35.903Z,7.60
2018-01-02T23:26:03.546Z,7.70
2018-01-02T23:28:29.977Z,7.70
2018-01-02T23:30:56.386Z,7.70
2018-01-02T23:33:23.546Z,7.60
2018-01-02T23:35:50.031Z,7.50
2018-01-02T23:38:16.414Z,7.60
2018-01-02T23:40:42.807Z,7.60
2018-01-02T23:43:09.294Z,7.60
2018-01-02T23:45:36.466Z,7.60
2018-01-02T23:48:02.997Z,7.60
2018-01-02T23:50:29.527Z,7.70
2018-01-02T23:52:55.894Z,7.70
2018-01-02T23:55:22.353Z,7.70
2018-01-02T23:57:48.762Z,7.90
